sensor_id;sensor_type;location;lat;lon;timestamp;P1;durP1;ratioP1;P2;durP2;ratioP2
60610;SDS011;46439;51.164;13.572;2023-02-13T00:01:02;23.20;;;14.10;;
60610;SDS011;46439;51.164;13.572;2023-02-13T00:03:31;20.50;;;12.40;;
60610;SDS011;46439;51.164;13.572;2023-02-13T00:06:00;23.20;;;13.30;;
60610;SDS011;46439;51.164;13.572;2023-02-13T00:08:29;20.10;;;12.50;;
60610;SDS011;46439;51.164;13.572;2023-02-13T00:10:57;27.00;;;14.00;;
60610;SDS011;46439;51.164;13.572;2023-02-13T00:13:26;23.60;;;13.40;;
60610;SDS011;46439;51.164;13.572;2023-02-13T00:15:58;21.80;;;12.60;;
60610;SDS011;46439;51.164;13.572;2023-02-13T00:18:28;22.80;;;13.00;;
60610;SDS011;46439;51.164;13.572;2023-02-13T00:21:14;24.80;;;13.20;;
60610;SDS011;46439;51.164;13.572;2023-02-13T00:23:42;25.30;;;14.60;;
60610;SDS011;46439;51.164;13.572;2023-02-13T00:26:12;28.90;;;14.20;;
60610;SDS011;46439;51.164;13.572;2023-02-13T00:28:42;23.70;;;13.40;;
60610;SDS011;46439;51.164;13.572;2023-02-13T00:31:12;27.00;;;14.80;;
60610;SDS011;46439;51.164;13.572;2023-02-13T00:33:43;25.30;;;14.70;;
60610;SDS011;46439;51.164;13.572;2023-02-13T00:36:12;24.30;;;14.20;;
60610;SDS011;46439;51.164;13.572;2023-02-13T00:38:43;25.30;;;14.00;;
60610;SDS011;46439;51.164;13.572;2023-02-13T00:41:12;22.60;;;13.50;;
60610;SDS011;46439;51.164;13.572;2023-02-13T00:43:45;25.30;;;14.50;;
60610;SDS011;46439;51.164;13.572;2023-02-13T00:46:15;49.10;;;19.90;;
60610;SDS011;46439;51.164;13.572;2023-02-13T00:48:43;42.50;;;18.80;;
60610;SDS011;46439;51.164;13.572;2023-02-13T00:51:12;56.50;;;20.10;;
60610;SDS011;46439;51.164;13.572;2023-02-13T00:53:41;31.20;;;16.30;;
60610;SDS011;46439;51.164;13.572;2023-02-13T00:56:09;28.70;;;15.60;;
60610;SDS011;46439;51.164;13.572;2023-02-13T00:58:37;22.10;;;13.30;;
60610;SDS011;46439;51.164;13.572;2023-02-13T01:01:06;27.60;;;14.70;;
60610;SDS011;46439;51.164;13.572;2023-02-13T01:03:34;27.50;;;14.80;;
60610;SDS011;46439;51.164;13.572;2023-02-13T01:06:03;28.20;;;15.00;;
60610;SDS011;46439;51.164;13.572;2023-02-13T01:08:33;23.80;;;14.40;;
60610;SDS011;46439;51.164;13.572;2023-02-13T01:11:04;29.70;;;16.20;;
60610;SDS011;46439;51.164;13.572;2023-02-13T01:13:33;25.80;;;15.20;;
60610;SDS011;46439;51.164;13.572;2023-02-13T01:16:01;24.80;;;15.30;;
60610;SDS011;46439;51.164;13.572;2023-02-13T01:18:30;29.70;;;16.10;;
60610;SDS011;46439;51.164;13.572;2023-02-13T01:21:00;26.30;;;15.50;;
60610;SDS011;46439;51.164;13.572;2023-02-13T01:23:31;27.00;;;15.60;;
60610;SDS011;46439;51.164;13.572;2023-02-13T01:26:01;27.20;;;15.90;;
60610;SDS011;46439;51.164;13.572;2023-02-13T01:28:31;27.80;;;16.20;;
60610;SDS011;46439;51.164;13.572;2023-02-13T01:31:00;25.60;;;14.70;;
60610;SDS011;46439;51.164;13.572;2023-02-13T01:33:29;25.70;;;15.90;;
60610;SDS011;46439;51.164;13.572;2023-02-13T01:35:57;28.20;;;15.60;;
60610;SDS011;46439;51.164;13.572;2023-02-13T01:38:30;31.00;;;16.50;;
60610;SDS011;46439;51.164;13.572;2023-02-13T01:40:59;30.00;;;16.20;;
60610;SDS011;46439;51.164;13.572;2023-02-13T01:46:26;28.80;;;16.10;;
60610;SDS011;46439;51.164;13.572;2023-02-13T01:48:58;30.20;;;16.40;;
60610;SDS011;46439;51.164;13.572;2023-02-13T01:51:31;29.10;;;16.30;;
60610;SDS011;46439;51.164;13.572;2023-02-13T01:54:03;24.90;;;15.20;;
60610;SDS011;46439;51.164;13.572;2023-02-13T01:56:36;26.40;;;15.00;;
60610;SDS011;46439;51.164;13.572;2023-02-13T01:59:10;28.00;;;15.80;;
60610;SDS011;46439;51.164;13.572;2023-02-13T02:01:42;29.00;;;15.90;;
60610;SDS011;46439;51.164;13.572;2023-02-13T02:04:12;26.40;;;15.70;;
60610;SDS011;46439;51.164;13.572;2023-02-13T02:06:44;32.50;;;17.30;;
60610;SDS011;46439;51.164;13.572;2023-02-13T02:11:50;29.10;;;16.30;;
60610;SDS011;46439;51.164;13.572;2023-02-13T02:14:28;30.90;;;16.80;;
60610;SDS011;46439;51.164;13.572;2023-02-13T02:16:56;31.60;;;16.60;;
60610;SDS011;46439;51.164;13.572;2023-02-13T02:19:29;32.30;;;16.10;;
60610;SDS011;46439;51.164;13.572;2023-02-13T02:25:17;36.30;;;16.00;;
60610;SDS011;46439;51.164;13.572;2023-02-13T02:28:18;31.90;;;15.00;;
60610;SDS011;46439;51.164;13.572;2023-02-13T02:34:09;30.10;;;15.10;;
60610;SDS011;46439;51.164;13.572;2023-02-13T02:36:46;27.30;;;14.40;;
60610;SDS011;46439;51.164;13.572;2023-02-13T02:39:29;32.30;;;15.90;;
60610;SDS011;46439;51.164;13.572;2023-02-13T02:42:05;30.80;;;14.10;;
60610;SDS011;46439;51.164;13.572;2023-02-13T02:44:44;35.00;;;15.50;;
60610;SDS011;46439;51.164;13.572;2023-02-13T02:47:19;29.80;;;15.30;;
60610;SDS011;46439;51.164;13.572;2023-02-13T02:50:24;34.30;;;15.80;;
60610;SDS011;46439;51.164;13.572;2023-02-13T02:53:03;35.30;;;14.90;;
60610;SDS011;46439;51.164;13.572;2023-02-13T02:55:40;31.70;;;15.30;;
60610;SDS011;46439;51.164;13.572;2023-02-13T02:58:15;34.80;;;16.30;;
60610;SDS011;46439;51.164;13.572;2023-02-13T03:01:08;40.70;;;17.10;;
60610;SDS011;46439;51.164;13.572;2023-02-13T03:03:59;42.30;;;18.10;;
60610;SDS011;46439;51.164;13.572;2023-02-13T03:06:48;41.40;;;18.10;;
60610;SDS011;46439;51.164;13.572;2023-02-13T03:09:21;37.10;;;17.00;;
60610;SDS011;46439;51.164;13.572;2023-02-13T03:12:16;37.10;;;16.70;;
60610;SDS011;46439;51.164;13.572;2023-02-13T03:15:07;41.10;;;18.50;;
60610;SDS011;46439;51.164;13.572;2023-02-13T03:17:36;37.30;;;17.70;;
60610;SDS011;46439;51.164;13.572;2023-02-13T03:20:27;42.60;;;21.60;;
60610;SDS011;46439;51.164;13.572;2023-02-13T03:23:25;34.30;;;17.10;;
60610;SDS011;46439;51.164;13.572;2023-02-13T03:26:05;36.10;;;16.70;;
60610;SDS011;46439;51.164;13.572;2023-02-13T03:28:44;38.10;;;16.90;;
60610;SDS011;46439;51.164;13.572;2023-02-13T03:31:37;24.00;;;13.30;;
60610;SDS011;46439;51.164;13.572;2023-02-13T03:34:15;37.60;;;18.10;;
60610;SDS011;46439;51.164;13.572;2023-02-13T03:36:47;27.10;;;14.80;;
60610;SDS011;46439;51.164;13.572;2023-02-13T03:39:46;25.00;;;13.30;;
60610;SDS011;46439;51.164;13.572;2023-02-13T03:42:23;28.60;;;14.80;;
60610;SDS011;46439;51.164;13.572;2023-02-13T03:45:02;27.10;;;14.30;;
60610;SDS011;46439;51.164;13.572;2023-02-13T03:47:55;28.60;;;14.70;;
60610;SDS011;46439;51.164;13.572;2023-02-13T03:50:26;41.70;;;20.60;;
60610;SDS011;46439;51.164;13.572;2023-02-13T03:52:55;32.10;;;17.80;;
60610;SDS011;46439;51.164;13.572;2023-02-13T03:55:29;24.60;;;14.00;;
60610;SDS011;46439;51.164;13.572;2023-02-13T03:58:23;22.50;;;13.40;;
60610;SDS011;46439;51.164;13.572;2023-02-13T04:01:14;21.20;;;12.30;;
60610;SDS011;46439;51.164;13.572;2023-02-13T04:03:47;20.00;;;11.20;;
60610;SDS011;46439;51.164;13.572;2023-02-13T04:06:24;24.00;;;12.70;;
60610;SDS011;46439;51.164;13.572;2023-02-13T04:08:57;20.10;;;12.40;;
60610;SDS011;46439;51.164;13.572;2023-02-13T04:11:27;19.70;;;12.30;;
60610;SDS011;46439;51.164;13.572;2023-02-13T04:14:01;19.90;;;12.20;;
60610;SDS011;46439;51.164;13.572;2023-02-13T04:16:36;20.10;;;11.50;;
60610;SDS011;46439;51.164;13.572;2023-02-13T04:19:08;19.30;;;11.40;;
60610;SDS011;46439;51.164;13.572;2023-02-13T04:21:38;21.10;;;11.90;;
60610;SDS011;46439;51.164;13.572;2023-02-13T04:24:07;20.10;;;11.50;;
60610;SDS011;46439;51.164;13.572;2023-02-13T04:26:37;18.60;;;10.50;;
60610;SDS011;46439;51.164;13.572;2023-02-13T04:29:08;17.40;;;10.60;;
60610;SDS011;46439;51.164;13.572;2023-02-13T04:31:37;19.10;;;11.60;;
60610;SDS011;46439;51.164;13.572;2023-02-13T04:34:05;18.30;;;10.60;;
60610;SDS011;46439;51.164;13.572;2023-02-13T04:36:34;17.00;;;10.70;;
60610;SDS011;46439;51.164;13.572;2023-02-13T04:39:02;17.00;;;10.60;;
60610;SDS011;46439;51.164;13.572;2023-02-13T04:41:31;17.40;;;10.10;;
60610;SDS011;46439;51.164;13.572;2023-02-13T04:43:59;17.20;;;9.90;;
60610;SDS011;46439;51.164;13.572;2023-02-13T04:46:28;14.60;;;9.40;;
60610;SDS011;46439;51.164;13.572;2023-02-13T04:48:56;15.50;;;9.90;;
60610;SDS011;46439;51.164;13.572;2023-02-13T04:51:25;15.50;;;9.50;;
60610;SDS011;46439;51.164;13.572;2023-02-13T04:53:53;15.90;;;9.50;;
60610;SDS011;46439;51.164;13.572;2023-02-13T04:56:22;13.80;;;8.80;;
60610;SDS011;46439;51.164;13.572;2023-02-13T04:58:50;15.20;;;9.70;;
60610;SDS011;46439;51.164;13.572;2023-02-13T05:01:20;14.30;;;9.10;;
60610;SDS011;46439;51.164;13.572;2023-02-13T05:03:48;14.80;;;9.50;;
60610;SDS011;46439;51.164;13.572;2023-02-13T05:06:17;14.70;;;9.40;;
60610;SDS011;46439;51.164;13.572;2023-02-13T05:08:45;16.10;;;9.70;;
60610;SDS011;46439;51.164;13.572;2023-02-13T05:11:14;15.70;;;10.00;;
60610;SDS011;46439;51.164;13.572;2023-02-13T05:13:42;14.60;;;9.40;;
60610;SDS011;46439;51.164;13.572;2023-02-13T05:16:10;14.30;;;9.50;;
60610;SDS011;46439;51.164;13.572;2023-02-13T05:18:39;16.40;;;9.40;;
60610;SDS011;46439;51.164;13.572;2023-02-13T05:21:07;16.00;;;10.50;;
60610;SDS011;46439;51.164;13.572;2023-02-13T05:23:55;21.70;;;11.50;;
60610;SDS011;46439;51.164;13.572;2023-02-13T05:26:23;20.90;;;13.10;;
60610;SDS011;46439;51.164;13.572;2023-02-13T05:28:52;24.90;;;14.90;;
60610;SDS011;46439;51.164;13.572;2023-02-13T05:31:39;26.00;;;16.30;;
60610;SDS011;46439;51.164;13.572;2023-02-13T05:34:08;31.10;;;18.20;;
60610;SDS011;46439;51.164;13.572;2023-02-13T05:36:36;134.50;;;62.00;;
60610;SDS011;46439;51.164;13.572;2023-02-13T05:39:05;97.40;;;50.50;;
60610;SDS011;46439;51.164;13.572;2023-02-13T05:41:34;87.10;;;45.90;;
60610;SDS011;46439;51.164;13.572;2023-02-13T05:44:02;65.50;;;36.60;;
60610;SDS011;46439;51.164;13.572;2023-02-13T05:46:31;35.20;;;21.00;;
60610;SDS011;46439;51.164;13.572;2023-02-13T05:48:59;30.40;;;18.60;;
60610;SDS011;46439;51.164;13.572;2023-02-13T05:51:28;30.30;;;17.70;;
60610;SDS011;46439;51.164;13.572;2023-02-13T05:53:56;38.10;;;22.00;;
60610;SDS011;46439;51.164;13.572;2023-02-13T05:56:25;36.90;;;24.50;;
60610;SDS011;46439;51.164;13.572;2023-02-13T05:58:54;43.90;;;27.60;;
60610;SDS011;46439;51.164;13.572;2023-02-13T06:01:23;40.70;;;26.10;;
60610;SDS011;46439;51.164;13.572;2023-02-13T06:03:52;25.00;;;17.10;;
60610;SDS011;46439;51.164;13.572;2023-02-13T06:06:20;21.40;;;12.90;;
60610;SDS011;46439;51.164;13.572;2023-02-13T06:08:49;24.00;;;14.10;;
60610;SDS011;46439;51.164;13.572;2023-02-13T06:11:18;22.90;;;13.30;;
60610;SDS011;46439;51.164;13.572;2023-02-13T06:13:47;22.00;;;13.60;;
60610;SDS011;46439;51.164;13.572;2023-02-13T06:16:15;23.30;;;13.60;;
60610;SDS011;46439;51.164;13.572;2023-02-13T06:18:44;23.60;;;14.00;;
60610;SDS011;46439;51.164;13.572;2023-02-13T06:21:12;24.50;;;14.00;;
60610;SDS011;46439;51.164;13.572;2023-02-13T06:23:41;23.00;;;13.20;;
60610;SDS011;46439;51.164;13.572;2023-02-13T06:26:09;25.10;;;13.30;;
60610;SDS011;46439;51.164;13.572;2023-02-13T06:28:38;24.10;;;13.10;;
60610;SDS011;46439;51.164;13.572;2023-02-13T06:31:06;22.20;;;13.30;;
60610;SDS011;46439;51.164;13.572;2023-02-13T06:33:35;22.10;;;12.60;;
60610;SDS011;46439;51.164;13.572;2023-02-13T06:36:04;22.50;;;12.20;;
60610;SDS011;46439;51.164;13.572;2023-02-13T06:38:33;21.60;;;12.70;;
60610;SDS011;46439;51.164;13.572;2023-02-13T06:41:02;24.60;;;12.30;;
60610;SDS011;46439;51.164;13.572;2023-02-13T06:43:30;24.30;;;12.30;;
60610;SDS011;46439;51.164;13.572;2023-02-13T06:45:59;24.40;;;13.00;;
60610;SDS011;46439;51.164;13.572;2023-02-13T06:48:29;23.00;;;12.10;;
60610;SDS011;46439;51.164;13.572;2023-02-13T06:50:58;28.10;;;14.50;;
60610;SDS011;46439;51.164;13.572;2023-02-13T06:53:29;23.70;;;12.40;;
60610;SDS011;46439;51.164;13.572;2023-02-13T06:55:58;24.40;;;13.30;;
60610;SDS011;46439;51.164;13.572;2023-02-13T06:58:33;24.70;;;13.20;;
60610;SDS011;46439;51.164;13.572;2023-02-13T07:01:02;26.90;;;12.90;;
60610;SDS011;46439;51.164;13.572;2023-02-13T07:03:31;23.40;;;12.60;;
60610;SDS011;46439;51.164;13.572;2023-02-13T07:05:59;24.30;;;13.20;;
60610;SDS011;46439;51.164;13.572;2023-02-13T07:08:27;22.40;;;13.20;;
60610;SDS011;46439;51.164;13.572;2023-02-13T07:10:56;24.30;;;12.40;;
60610;SDS011;46439;51.164;13.572;2023-02-13T07:13:25;25.90;;;13.40;;
60610;SDS011;46439;51.164;13.572;2023-02-13T07:15:53;24.50;;;13.30;;
60610;SDS011;46439;51.164;13.572;2023-02-13T07:18:26;26.80;;;13.40;;
60610;SDS011;46439;51.164;13.572;2023-02-13T07:20:54;24.10;;;12.40;;
60610;SDS011;46439;51.164;13.572;2023-02-13T07:23:25;24.80;;;13.20;;
60610;SDS011;46439;51.164;13.572;2023-02-13T07:25:53;26.30;;;13.60;;
60610;SDS011;46439;51.164;13.572;2023-02-13T07:28:24;20.80;;;12.20;;
60610;SDS011;46439;51.164;13.572;2023-02-13T07:30:52;23.50;;;12.50;;
60610;SDS011;46439;51.164;13.572;2023-02-13T07:33:21;27.50;;;14.50;;
60610;SDS011;46439;51.164;13.572;2023-02-13T07:35:50;25.50;;;13.90;;
60610;SDS011;46439;51.164;13.572;2023-02-13T07:38:18;27.80;;;13.90;;
60610;SDS011;46439;51.164;13.572;2023-02-13T07:40:47;24.40;;;13.60;;
60610;SDS011;46439;51.164;13.572;2023-02-13T07:43:15;27.00;;;13.70;;
60610;SDS011;46439;51.164;13.572;2023-02-13T07:45:44;24.60;;;13.30;;
60610;SDS011;46439;51.164;13.572;2023-02-13T07:48:12;24.90;;;14.30;;
60610;SDS011;46439;51.164;13.572;2023-02-13T07:50:41;24.30;;;13.10;;
60610;SDS011;46439;51.164;13.572;2023-02-13T07:53:09;22.90;;;12.80;;
60610;SDS011;46439;51.164;13.572;2023-02-13T07:55:38;23.10;;;12.50;;
60610;SDS011;46439;51.164;13.572;2023-02-13T07:58:06;21.00;;;12.20;;
60610;SDS011;46439;51.164;13.572;2023-02-13T08:00:35;23.60;;;13.20;;
60610;SDS011;46439;51.164;13.572;2023-02-13T08:03:03;21.20;;;11.60;;
60610;SDS011;46439;51.164;13.572;2023-02-13T08:05:31;20.60;;;13.00;;
60610;SDS011;46439;51.164;13.572;2023-02-13T08:08:01;29.50;;;19.40;;
60610;SDS011;46439;51.164;13.572;2023-02-13T08:10:30;31.90;;;20.00;;
60610;SDS011;46439;51.164;13.572;2023-02-13T08:13:17;31.20;;;20.70;;
60610;SDS011;46439;51.164;13.572;2023-02-13T08:15:45;36.70;;;23.50;;
60610;SDS011;46439;51.164;13.572;2023-02-13T08:18:14;37.50;;;21.10;;
60610;SDS011;46439;51.164;13.572;2023-02-13T08:20:42;53.10;;;31.50;;
60610;SDS011;46439;51.164;13.572;2023-02-13T08:23:11;46.00;;;29.70;;
60610;SDS011;46439;51.164;13.572;2023-02-13T08:25:39;37.00;;;21.60;;
60610;SDS011;46439;51.164;13.572;2023-02-13T08:28:08;23.50;;;13.50;;
60610;SDS011;46439;51.164;13.572;2023-02-13T08:30:36;20.50;;;11.90;;
60610;SDS011;46439;51.164;13.572;2023-02-13T08:33:05;18.70;;;11.20;;
60610;SDS011;46439;51.164;13.572;2023-02-13T08:35:33;17.90;;;11.90;;
60610;SDS011;46439;51.164;13.572;2023-02-13T08:38:02;20.00;;;12.80;;
60610;SDS011;46439;51.164;13.572;2023-02-13T08:40:31;18.50;;;12.80;;
60610;SDS011;46439;51.164;13.572;2023-02-13T08:43:00;20.20;;;14.00;;
60610;SDS011;46439;51.164;13.572;2023-02-13T08:45:30;19.10;;;12.40;;
60610;SDS011;46439;51.164;13.572;2023-02-13T08:47:59;22.20;;;12.60;;
60610;SDS011;46439;51.164;13.572;2023-02-13T08:50:29;17.30;;;11.10;;
60610;SDS011;46439;51.164;13.572;2023-02-13T08:52:58;21.00;;;10.50;;
60610;SDS011;46439;51.164;13.572;2023-02-13T08:55:27;18.60;;;11.30;;
60610;SDS011;46439;51.164;13.572;2023-02-13T08:57:59;15.20;;;11.10;;
60610;SDS011;46439;51.164;13.572;2023-02-13T09:00:28;18.40;;;10.90;;
60610;SDS011;46439;51.164;13.572;2023-02-13T09:03:00;17.90;;;10.90;;
60610;SDS011;46439;51.164;13.572;2023-02-13T09:05:29;17.10;;;10.70;;
60610;SDS011;46439;51.164;13.572;2023-02-13T09:07:59;18.30;;;10.80;;
60610;SDS011;46439;51.164;13.572;2023-02-13T09:10:29;17.60;;;11.10;;
60610;SDS011;46439;51.164;13.572;2023-02-13T09:12:58;20.10;;;10.80;;
60610;SDS011;46439;51.164;13.572;2023-02-13T09:15:26;18.90;;;10.40;;
60610;SDS011;46439;51.164;13.572;2023-02-13T09:17:55;19.50;;;11.10;;
60610;SDS011;46439;51.164;13.572;2023-02-13T09:20:25;18.10;;;10.60;;
60610;SDS011;46439;51.164;13.572;2023-02-13T09:22:55;17.40;;;10.20;;
60610;SDS011;46439;51.164;13.572;2023-02-13T09:25:23;17.90;;;9.40;;
60610;SDS011;46439;51.164;13.572;2023-02-13T09:27:52;18.60;;;10.40;;
60610;SDS011;46439;51.164;13.572;2023-02-13T09:30:21;19.00;;;10.00;;
60610;SDS011;46439;51.164;13.572;2023-02-13T09:32:50;16.10;;;10.60;;
60610;SDS011;46439;51.164;13.572;2023-02-13T09:35:21;20.30;;;10.70;;
60610;SDS011;46439;51.164;13.572;2023-02-13T09:37:49;17.60;;;10.60;;
60610;SDS011;46439;51.164;13.572;2023-02-13T09:40:20;16.80;;;10.00;;
60610;SDS011;46439;51.164;13.572;2023-02-13T09:42:52;16.50;;;10.90;;
60610;SDS011;46439;51.164;13.572;2023-02-13T09:45:36;20.60;;;11.20;;
60610;SDS011;46439;51.164;13.572;2023-02-13T09:48:07;19.70;;;11.20;;
60610;SDS011;46439;51.164;13.572;2023-02-13T09:50:44;18.40;;;11.20;;
60610;SDS011;46439;51.164;13.572;2023-02-13T09:53:18;20.00;;;11.30;;
60610;SDS011;46439;51.164;13.572;2023-02-13T09:55:50;19.50;;;11.60;;
60610;SDS011;46439;51.164;13.572;2023-02-13T09:58:38;16.40;;;10.70;;
60610;SDS011;46439;51.164;13.572;2023-02-13T10:01:38;20.50;;;12.30;;
60610;SDS011;46439;51.164;13.572;2023-02-13T10:04:19;26.60;;;15.80;;
60610;SDS011;46439;51.164;13.572;2023-02-13T10:06:57;22.70;;;12.90;;
60610;SDS011;46439;51.164;13.572;2023-02-13T10:09:37;22.90;;;13.20;;
60610;SDS011;46439;51.164;13.572;2023-02-13T10:12:19;19.10;;;11.20;;
60610;SDS011;46439;51.164;13.572;2023-02-13T10:14:56;24.40;;;14.80;;
60610;SDS011;46439;51.164;13.572;2023-02-13T10:17:37;23.90;;;12.70;;
60610;SDS011;46439;51.164;13.572;2023-02-13T10:20:14;17.50;;;10.80;;
60610;SDS011;46439;51.164;13.572;2023-02-13T10:22:50;18.90;;;11.10;;
60610;SDS011;46439;51.164;13.572;2023-02-13T10:25:26;18.10;;;10.80;;
60610;SDS011;46439;51.164;13.572;2023-02-13T10:27:59;24.90;;;13.00;;
60610;SDS011;46439;51.164;13.572;2023-02-13T10:30:34;20.00;;;10.90;;
60610;SDS011;46439;51.164;13.572;2023-02-13T10:33:10;18.60;;;10.90;;
60610;SDS011;46439;51.164;13.572;2023-02-13T10:35:46;15.60;;;9.60;;
60610;SDS011;46439;51.164;13.572;2023-02-13T10:38:20;17.30;;;10.50;;
60610;SDS011;46439;51.164;13.572;2023-02-13T10:41:02;16.20;;;10.50;;
60610;SDS011;46439;51.164;13.572;2023-02-13T10:43:46;15.10;;;9.00;;
60610;SDS011;46439;51.164;13.572;2023-02-13T10:46:26;13.70;;;8.70;;
60610;SDS011;46439;51.164;13.572;2023-02-13T10:49:06;11.60;;;8.20;;
60610;SDS011;46439;51.164;13.572;2023-02-13T10:51:48;16.30;;;9.50;;
60610;SDS011;46439;51.164;13.572;2023-02-13T10:54:26;14.70;;;9.50;;
60610;SDS011;46439;51.164;13.572;2023-02-13T10:57:08;13.20;;;9.90;;
60610;SDS011;46439;51.164;13.572;2023-02-13T10:59:52;22.70;;;14.70;;
60610;SDS011;46439;51.164;13.572;2023-02-13T11:02:32;15.10;;;11.10;;
60610;SDS011;46439;51.164;13.572;2023-02-13T11:05:09;12.70;;;8.40;;
60610;SDS011;46439;51.164;13.572;2023-02-13T11:07:42;11.40;;;7.90;;
60610;SDS011;46439;51.164;13.572;2023-02-13T11:12:43;12.70;;;8.50;;
60610;SDS011;46439;51.164;13.572;2023-02-13T11:15:20;12.70;;;8.10;;
60610;SDS011;46439;51.164;13.572;2023-02-13T11:17:52;12.00;;;7.90;;
60610;SDS011;46439;51.164;13.572;2023-02-13T11:20:24;11.20;;;7.60;;
60610;SDS011;46439;51.164;13.572;2023-02-13T11:23:15;12.10;;;8.30;;
60610;SDS011;46439;51.164;13.572;2023-02-13T11:25:56;11.50;;;8.40;;
60610;SDS011;46439;51.164;13.572;2023-02-13T11:28:27;12.40;;;8.10;;
60610;SDS011;46439;51.164;13.572;2023-02-13T11:31:09;13.40;;;8.10;;
60610;SDS011;46439;51.164;13.572;2023-02-13T11:33:46;12.40;;;8.50;;
60610;SDS011;46439;51.164;13.572;2023-02-13T11:36:23;11.50;;;8.10;;
60610;SDS011;46439;51.164;13.572;2023-02-13T11:39:00;11.60;;;8.20;;
60610;SDS011;46439;51.164;13.572;2023-02-13T11:41:36;10.70;;;7.90;;
60610;SDS011;46439;51.164;13.572;2023-02-13T11:44:16;11.00;;;7.60;;
60610;SDS011;46439;51.164;13.572;2023-02-13T11:46:51;10.60;;;7.20;;
60610;SDS011;46439;51.164;13.572;2023-02-13T11:49:21;9.90;;;7.10;;
60610;SDS011;46439;51.164;13.572;2023-02-13T11:51:52;12.30;;;7.50;;
60610;SDS011;46439;51.164;13.572;2023-02-13T11:54:24;10.90;;;7.80;;
60610;SDS011;46439;51.164;13.572;2023-02-13T11:56:58;10.90;;;7.80;;
60610;SDS011;46439;51.164;13.572;2023-02-13T11:59:31;13.60;;;8.10;;
60610;SDS011;46439;51.164;13.572;2023-02-13T12:02:13;13.00;;;9.50;;
60610;SDS011;46439;51.164;13.572;2023-02-13T12:04:45;12.00;;;8.30;;
60610;SDS011;46439;51.164;13.572;2023-02-13T12:07:19;10.70;;;7.90;;
60610;SDS011;46439;51.164;13.572;2023-02-13T12:09:52;12.30;;;8.60;;
60610;SDS011;46439;51.164;13.572;2023-02-13T12:12:29;15.30;;;9.80;;
60610;SDS011;46439;51.164;13.572;2023-02-13T12:15:06;10.00;;;7.00;;
60610;SDS011;46439;51.164;13.572;2023-02-13T12:17:44;10.10;;;7.00;;
60610;SDS011;46439;51.164;13.572;2023-02-13T12:20:17;8.80;;;6.60;;
60610;SDS011;46439;51.164;13.572;2023-02-13T12:22:50;9.00;;;6.50;;
60610;SDS011;46439;51.164;13.572;2023-02-13T12:25:35;9.30;;;6.70;;
60610;SDS011;46439;51.164;13.572;2023-02-13T12:28:19;8.80;;;6.20;;
60610;SDS011;46439;51.164;13.572;2023-02-13T12:31:09;9.20;;;6.70;;
60610;SDS011;46439;51.164;13.572;2023-02-13T12:36:59;13.20;;;7.20;;
60610;SDS011;46439;51.164;13.572;2023-02-13T12:39:43;8.30;;;6.50;;
60610;SDS011;46439;51.164;13.572;2023-02-13T12:42:24;12.10;;;7.50;;
60610;SDS011;46439;51.164;13.572;2023-02-13T12:45:07;16.80;;;9.30;;
60610;SDS011;46439;51.164;13.572;2023-02-13T12:47:45;11.50;;;8.30;;
60610;SDS011;46439;51.164;13.572;2023-02-13T12:50:32;8.70;;;6.10;;
60610;SDS011;46439;51.164;13.572;2023-02-13T12:53:25;9.70;;;7.10;;
60610;SDS011;46439;51.164;13.572;2023-02-13T12:56:11;13.40;;;8.50;;
60610;SDS011;46439;51.164;13.572;2023-02-13T12:58:58;9.20;;;6.10;;
60610;SDS011;46439;51.164;13.572;2023-02-13T13:01:45;8.30;;;5.80;;
60610;SDS011;46439;51.164;13.572;2023-02-13T13:07:22;8.10;;;5.60;;
60610;SDS011;46439;51.164;13.572;2023-02-13T13:13:06;8.80;;;6.10;;
60610;SDS011;46439;51.164;13.572;2023-02-13T13:15:43;12.20;;;7.10;;
60610;SDS011;46439;51.164;13.572;2023-02-13T13:18:19;22.50;;;13.20;;
60610;SDS011;46439;51.164;13.572;2023-02-13T13:21:03;10.10;;;6.70;;
60610;SDS011;46439;51.164;13.572;2023-02-13T13:23:44;10.30;;;6.80;;
60610;SDS011;46439;51.164;13.572;2023-02-13T13:26:21;16.80;;;11.00;;
60610;SDS011;46439;51.164;13.572;2023-02-13T13:28:58;15.40;;;10.10;;
60610;SDS011;46439;51.164;13.572;2023-02-13T13:31:30;20.50;;;12.70;;
60610;SDS011;46439;51.164;13.572;2023-02-13T13:34:01;10.90;;;7.10;;
60610;SDS011;46439;51.164;13.572;2023-02-13T13:36:37;13.40;;;7.70;;
60610;SDS011;46439;51.164;13.572;2023-02-13T13:39:14;27.00;;;14.50;;
60610;SDS011;46439;51.164;13.572;2023-02-13T13:41:53;10.60;;;7.80;;
60610;SDS011;46439;51.164;13.572;2023-02-13T13:44:41;21.40;;;12.70;;
60610;SDS011;46439;51.164;13.572;2023-02-13T13:47:35;21.30;;;13.10;;
60610;SDS011;46439;51.164;13.572;2023-02-13T13:50:20;23.50;;;14.30;;
60610;SDS011;46439;51.164;13.572;2023-02-13T13:53:07;17.80;;;11.20;;
60610;SDS011;46439;51.164;13.572;2023-02-13T13:58:33;18.30;;;11.10;;
60610;SDS011;46439;51.164;13.572;2023-02-13T14:01:20;20.70;;;13.90;;
60610;SDS011;46439;51.164;13.572;2023-02-13T14:03:55;11.50;;;8.20;;
60610;SDS011;46439;51.164;13.572;2023-02-13T14:06:25;13.70;;;9.50;;
60610;SDS011;46439;51.164;13.572;2023-02-13T14:15:46;13.40;;;8.70;;
60610;SDS011;46439;51.164;13.572;2023-02-13T14:18:20;11.20;;;8.30;;
60610;SDS011;46439;51.164;13.572;2023-02-13T14:20:51;13.20;;;8.20;;
60610;SDS011;46439;51.164;13.572;2023-02-13T14:23:29;12.00;;;7.20;;
60610;SDS011;46439;51.164;13.572;2023-02-13T14:26:10;10.50;;;7.20;;
60610;SDS011;46439;51.164;13.572;2023-02-13T14:28:57;10.50;;;7.70;;
60610;SDS011;46439;51.164;13.572;2023-02-13T14:31:41;11.00;;;7.50;;
60610;SDS011;46439;51.164;13.572;2023-02-13T14:34:23;10.20;;;7.50;;
60610;SDS011;46439;51.164;13.572;2023-02-13T14:37:06;10.60;;;7.60;;
60610;SDS011;46439;51.164;13.572;2023-02-13T14:42:58;10.40;;;7.30;;
60610;SDS011;46439;51.164;13.572;2023-02-13T14:45:31;11.50;;;7.50;;
60610;SDS011;46439;51.164;13.572;2023-02-13T14:48:06;10.30;;;7.60;;
60610;SDS011;46439;51.164;13.572;2023-02-13T14:50:42;12.00;;;8.40;;
60610;SDS011;46439;51.164;13.572;2023-02-13T14:53:16;11.30;;;7.60;;
60610;SDS011;46439;51.164;13.572;2023-02-13T14:55:53;10.90;;;7.90;;
60610;SDS011;46439;51.164;13.572;2023-02-13T14:58:26;10.00;;;6.90;;
60610;SDS011;46439;51.164;13.572;2023-02-13T15:01:01;13.30;;;7.90;;
60610;SDS011;46439;51.164;13.572;2023-02-13T15:03:35;10.30;;;6.60;;
60610;SDS011;46439;51.164;13.572;2023-02-13T15:06:11;11.20;;;7.30;;
60610;SDS011;46439;51.164;13.572;2023-02-13T15:08:48;11.80;;;7.80;;
60610;SDS011;46439;51.164;13.572;2023-02-13T15:11:35;10.60;;;7.30;;
60610;SDS011;46439;51.164;13.572;2023-02-13T15:14:18;11.10;;;8.10;;
60610;SDS011;46439;51.164;13.572;2023-02-13T15:16:49;11.50;;;7.90;;
60610;SDS011;46439;51.164;13.572;2023-02-13T15:19:21;10.30;;;7.60;;
60610;SDS011;46439;51.164;13.572;2023-02-13T15:21:52;11.30;;;8.10;;
60610;SDS011;46439;51.164;13.572;2023-02-13T15:24:23;13.20;;;8.10;;
60610;SDS011;46439;51.164;13.572;2023-02-13T15:26:58;11.60;;;8.10;;
60610;SDS011;46439;51.164;13.572;2023-02-13T15:29:28;10.60;;;7.20;;